createdAt,value
2022-10-19T00:00:24.934Z,80.79
2022-10-19T00:01:24.917Z,80.99
2022-10-19T00:02:24.935Z,81.10
2022-10-19T00:03:24.908Z,80.89
2022-10-19T00:04:24.898Z,81.10
2022-10-19T00:05:24.877Z,81.34
2022-10-19T00:06:24.865Z,81.74
2022-10-19T00:07:24.859Z,81.95
2022-10-19T00:08:24.849Z,82.56
2022-10-19T00:09:24.878Z,82.77
2022-10-19T00:10:24.827Z,83.59
2022-10-19T00:11:24.820Z,84.20
2022-10-19T00:12:24.801Z,84.41
2022-10-19T00:13:24.790Z,84.55
2022-10-19T00:14:24.800Z,85.06
2022-10-19T00:15:24.778Z,85.67
2022-10-19T00:16:24.760Z,85.57
2022-10-19T00:17:24.752Z,85.67
2022-10-19T00:18:24.750Z,85.57
2022-10-19T00:19:24.762Z,85.57
2022-10-19T00:20:24.731Z,85.26
2022-10-19T00:21:24.709Z,84.95
2022-10-19T00:22:24.694Z,85.16
2022-10-19T00:23:24.693Z,85.16
2022-10-19T00:24:24.696Z,85.16
2022-10-19T00:25:24.674Z,85.36
2022-10-19T00:26:24.654Z,85.88
2022-10-19T00:27:24.645Z,86.04
2022-10-19T00:28:24.634Z,85.94
2022-10-19T00:29:24.643Z,86.14
2022-10-19T00:30:24.626Z,86.24
2022-10-19T00:31:24.614Z,86.24
2022-10-19T00:32:24.598Z,86.44
2022-10-19T00:33:24.587Z,86.35
2022-10-19T00:34:24.587Z,86.96
2022-10-19T00:35:24.569Z,87.57
2022-10-19T00:36:24.547Z,88.08
2022-10-19T00:37:24.547Z,88.53
2022-10-19T00:38:24.528Z,88.84
2022-10-19T00:39:24.548Z,89.25
2022-10-19T00:40:24.508Z,89.76
2022-10-19T00:41:24.500Z,89.86
2022-10-19T00:42:24.479Z,90.27
2022-10-19T00:43:24.479Z,90.47
2022-10-19T00:44:24.480Z,90.37
2022-10-19T00:45:24.457Z,90.06
2022-10-19T00:46:24.450Z,90.06
2022-10-19T00:47:24.441Z,89.86
2022-10-19T00:48:24.423Z,89.86
2022-10-19T00:49:24.438Z,89.65
2022-10-19T00:50:24.404Z,89.86
2022-10-19T00:51:24.392Z,89.76
2022-10-19T00:52:24.379Z,88.64
2022-10-19T00:53:24.385Z,88.74
2022-10-19T00:54:24.366Z,88.53
2022-10-19T00:55:24.364Z,88.64
2022-10-19T00:56:24.333Z,88.74
2022-10-19T00:57:24.333Z,88.84
2022-10-19T00:58:24.314Z,88.43
2022-10-19T00:59:24.324Z,88.59
2022-10-19T01:00:24.294Z,88.53
2022-10-19T01:01:24.334Z,88.02
2022-10-19T01:02:24.273Z,88.02
2022-10-19T01:03:24.266Z,88.12
2022-10-19T01:04:24.265Z,88.12
2022-10-19T01:05:24.245Z,87.98
2022-10-19T01:06:24.234Z,87.67
2022-10-19T01:07:24.225Z,87.16
2022-10-19T01:08:24.215Z,86.90
2022-10-19T01:09:24.222Z,86.69
2022-10-19T01:10:24.195Z,86.29
2022-10-19T01:11:24.179Z,86.49
2022-10-19T01:12:24.176Z,86.49
2022-10-19T01:13:24.159Z,86.79
2022-10-19T01:14:24.175Z,86.49
2022-10-19T01:15:24.139Z,86.43
2022-10-19T01:16:24.129Z,86.12
2022-10-19T01:17:24.119Z,86.32
2022-10-19T01:18:24.110Z,86.53
2022-10-19T01:19:24.110Z,86.63
2022-10-19T01:20:24.091Z,86.73
2022-10-19T01:21:24.070Z,86.83
2022-10-19T01:22:24.073Z,86.94
2022-10-19T01:23:24.058Z,86.63
2022-10-19T01:24:24.061Z,86.53
2022-10-19T01:25:24.033Z,86.63
2022-10-19T01:26:24.023Z,86.88
2022-10-19T01:27:24.002Z,87.29
2022-10-19T01:28:24.004Z,87.24
2022-10-19T01:29:24.003Z,87.04
2022-10-19T01:30:23.984Z,86.83
2022-10-19T01:31:23.969Z,87.29
2022-10-19T01:32:23.976Z,87.59
2022-10-19T01:33:23.944Z,87.65
2022-10-19T01:34:23.956Z,87.38
2022-10-19T01:35:23.924Z,87.38
2022-10-19T01:36:23.922Z,87.29
2022-10-19T01:37:23.905Z,87.18
2022-10-19T01:38:23.896Z,87.49
2022-10-19T01:39:23.896Z,87.70
2022-10-19T01:40:23.877Z,87.38
2022-10-19T01:41:23.866Z,87.59
2022-10-19T01:42:23.858Z,88.00
2022-10-19T01:43:23.837Z,88.35
2022-10-19T01:44:23.848Z,88.65
2022-10-19T01:45:23.828Z,88.56
2022-10-19T01:46:23.822Z,88.45
2022-10-19T01:47:23.798Z,88.76
2022-10-19T01:48:23.789Z,88.90
2022-10-19T01:49:23.799Z,88.70
2022-10-19T01:50:23.769Z,88.90
2022-10-19T01:51:23.759Z,88.96
2022-10-19T01:52:23.750Z,88.96
2022-10-19T01:53:23.731Z,88.86
2022-10-19T01:54:23.741Z,88.76
2022-10-19T01:55:23.720Z,88.76
2022-10-19T01:56:23.701Z,88.56
2022-10-19T01:57:23.739Z,88.24
2022-10-19T01:58:23.682Z,87.94
2022-10-19T01:59:23.683Z,87.59
2022-10-19T02:00:23.663Z,87.63
2022-10-19T02:01:23.653Z,87.63
2022-10-19T02:02:23.644Z,87.63
2022-10-19T02:03:23.630Z,87.84
2022-10-19T02:04:23.642Z,87.94
2022-10-19T02:05:23.604Z,88.00
2022-10-19T02:06:23.604Z,88.20
2022-10-19T02:07:23.664Z,88.00
2022-10-19T02:08:23.576Z,88.00
2022-10-19T02:09:23.585Z,87.90
2022-10-19T02:10:23.556Z,87.70
2022-10-19T02:11:23.547Z,87.38
2022-10-19T02:12:23.565Z,87.24
2022-10-19T02:13:23.526Z,87.04
2022-10-19T02:14:23.537Z,86.94
2022-10-19T02:15:23.507Z,87.04
2022-10-19T02:16:23.498Z,86.83
2022-10-19T02:17:23.481Z,87.04
2022-10-19T02:18:23.481Z,86.94
2022-10-19T02:20:23.450Z,87.04
2022-10-19T02:21:23.439Z,87.14
2022-10-19T02:22:23.429Z,87.45
2022-10-19T02:23:23.419Z,87.35
2022-10-19T02:24:23.438Z,87.35
2022-10-19T02:25:23.400Z,87.14
2022-10-19T02:26:23.390Z,87.04
2022-10-19T02:27:23.392Z,87.14
2022-10-19T02:28:23.371Z,87.35
2022-10-19T02:29:23.372Z,87.24
2022-10-19T02:30:23.352Z,87.35
2022-10-19T02:31:23.333Z,87.24
2022-10-19T02:32:23.322Z,87.04
2022-10-19T02:33:23.311Z,86.94
2022-10-19T02:34:23.322Z,87.04
2022-10-19T02:35:23.292Z,87.35
2022-10-19T02:36:23.303Z,87.65
2022-10-19T02:37:25.480Z,87.96
2022-10-19T02:38:23.264Z,88.06
2022-10-19T02:39:23.269Z,87.96
2022-10-19T02:40:23.245Z,88.06
2022-10-19T02:41:23.225Z,87.76
2022-10-19T02:42:23.224Z,87.82
2022-10-19T02:43:23.209Z,88.02
2022-10-19T02:44:23.219Z,88.02
2022-10-19T02:45:23.190Z,87.30
2022-10-19T02:46:23.177Z,87.61
2022-10-19T02:47:23.168Z,87.61
2022-10-19T02:48:23.157Z,87.82
2022-10-19T02:49:23.157Z,87.51
2022-10-19T02:50:23.138Z,87.55
2022-10-19T02:51:23.117Z,87.55
2022-10-19T02:52:23.119Z,87.45
2022-10-19T02:53:23.098Z,87.51
2022-10-19T02:54:23.117Z,87.55
2022-10-19T02:55:23.114Z,87.85
2022-10-19T02:56:23.070Z,87.85
2022-10-19T02:57:23.068Z,87.65
2022-10-19T02:58:23.062Z,87.65
2022-10-19T02:59:23.063Z,87.55
2022-10-19T03:00:23.038Z,87.35
2022-10-19T03:01:23.020Z,87.55
2022-10-19T03:02:23.011Z,87.55
2022-10-19T03:03:23.001Z,87.55
2022-10-19T03:04:23.012Z,87.45
2022-10-19T03:05:23.212Z,87.24
2022-10-19T03:06:22.973Z,87.14
2022-10-19T03:07:22.955Z,87.24
2022-10-19T03:08:22.953Z,87.35
2022-10-19T03:09:22.953Z,87.45
2022-10-19T03:10:22.934Z,87.76
2022-10-19T03:11:22.914Z,87.65
2022-10-19T03:12:22.904Z,87.85
2022-10-19T03:13:22.895Z,88.17
2022-10-19T03:14:22.905Z,88.26
2022-10-19T03:15:22.867Z,88.17
2022-10-19T03:16:22.870Z,87.85
2022-10-19T03:17:22.847Z,87.35
2022-10-19T03:18:22.845Z,87.04
2022-10-19T03:19:22.847Z,87.04
2022-10-19T03:20:22.824Z,87.24
2022-10-19T03:21:22.808Z,87.35
2022-10-19T03:22:22.827Z,87.20
2022-10-19T03:23:22.781Z,87.00
2022-10-19T03:24:22.788Z,87.00
2022-10-19T03:25:22.766Z,86.69
2022-10-19T03:26:22.758Z,86.59
2022-10-19T03:27:22.746Z,86.59
2022-10-19T03:28:22.738Z,86.49
2022-10-19T03:29:22.739Z,86.59
2022-10-19T03:30:22.718Z,86.69
2022-10-19T03:31:22.701Z,86.59
2022-10-19T03:32:22.697Z,86.38
2022-10-19T03:33:22.747Z,86.79
2022-10-19T03:34:22.706Z,86.79
2022-10-19T03:35:22.661Z,86.49
2022-10-19T03:36:22.655Z,86.38
2022-10-19T03:37:22.647Z,86.63
2022-10-19T03:38:22.633Z,86.63
2022-10-19T03:39:22.633Z,86.53
2022-10-19T03:40:22.621Z,86.32
2022-10-19T03:41:22.593Z,86.63
2022-10-19T03:42:22.594Z,86.63
2022-10-19T03:43:22.576Z,86.53
2022-10-19T03:44:22.585Z,86.63
2022-10-19T03:45:22.554Z,86.73
2022-10-19T03:46:22.553Z,86.63
2022-10-19T03:47:22.534Z,86.43
2022-10-19T03:48:22.525Z,86.43
2022-10-19T03:49:22.526Z,86.32
2022-10-19T03:50:22.506Z,86.22
2022-10-19T03:51:22.486Z,86.32
2022-10-19T03:52:22.486Z,86.43
2022-10-19T03:53:22.468Z,86.43
2022-10-19T03:54:25.073Z,86.43
2022-10-19T03:55:23.446Z,86.63
2022-10-19T03:56:22.438Z,86.83
2022-10-19T03:57:22.428Z,87.14
2022-10-19T03:58:22.418Z,86.94
2022-10-19T03:59:22.425Z,86.63
2022-10-19T04:00:22.405Z,86.88
2022-10-19T04:01:22.430Z,87.24
2022-10-19T04:02:22.381Z,87.29
2022-10-19T04:03:22.418Z,87.18
2022-10-19T04:04:22.381Z,87.18
2022-10-19T04:05:22.348Z,87.08
2022-10-19T04:06:22.337Z,87.38
2022-10-19T04:07:22.321Z,88.00
2022-10-19T04:08:22.331Z,88.00
2022-10-19T04:09:22.321Z,87.65
2022-10-19T04:10:22.294Z,87.65
2022-10-19T04:11:22.281Z,87.45
2022-10-19T04:12:22.272Z,87.45
2022-10-19T04:13:22.270Z,87.55
2022-10-19T04:14:32.148Z,87.55
2022-10-19T04:15:23.240Z,87.45
2022-10-19T04:16:22.231Z,87.55
2022-10-19T04:17:22.235Z,87.55
2022-10-19T04:18:22.206Z,87.35
2022-10-19T04:19:22.206Z,87.45
2022-10-19T04:20:22.192Z,87.65
2022-10-19T04:21:22.166Z,87.65
2022-10-19T04:22:22.187Z,87.29
2022-10-19T04:23:22.156Z,87.49
2022-10-19T04:24:22.165Z,87.79
2022-10-19T04:25:22.136Z,87.79
2022-10-19T04:26:22.133Z,87.90
2022-10-19T04:27:22.124Z,87.85
2022-10-19T04:28:22.108Z,87.79
2022-10-19T04:29:23.814Z,87.70
2022-10-19T04:30:22.084Z,87.38
2022-10-19T04:31:22.070Z,87.38
2022-10-19T04:32:22.066Z,87.38
2022-10-19T04:33:22.050Z,87.49
2022-10-19T04:34:22.057Z,87.49
2022-10-19T04:35:22.039Z,87.70
2022-10-19T04:36:22.019Z,87.70
2022-10-19T04:37:22.000Z,87.90
2022-10-19T04:38:22.010Z,87.79
2022-10-19T04:39:22.001Z,87.79
2022-10-19T04:40:21.981Z,87.73
2022-10-19T04:41:21.963Z,87.94
2022-10-19T04:42:21.959Z,88.14
2022-10-19T04:43:21.941Z,88.45
2022-10-19T04:45:21.928Z,88.76
2022-10-19T04:46:21.913Z,88.86
2022-10-19T04:47:21.904Z,88.86
2022-10-19T04:48:21.903Z,88.65
2022-10-19T04:49:21.900Z,88.56
2022-10-19T04:50:21.872Z,88.45
2022-10-19T04:51:21.862Z,88.56
2022-10-19T04:52:21.853Z,88.76
2022-10-19T04:53:21.838Z,88.65
2022-10-19T04:54:21.846Z,88.65
2022-10-19T04:55:21.816Z,88.24
2022-10-19T04:56:21.807Z,88.45
2022-10-19T04:57:21.795Z,88.65
2022-10-19T04:58:21.786Z,88.86
2022-10-19T04:59:21.791Z,88.96
2022-10-19T05:00:21.767Z,88.86
2022-10-19T05:01:21.791Z,88.76
2022-10-19T05:02:21.746Z,88.76
2022-10-19T05:03:21.738Z,88.86
2022-10-19T05:04:21.750Z,89.06
2022-10-19T05:05:21.709Z,89.12
2022-10-19T05:06:21.700Z,89.03
2022-10-19T05:07:21.689Z,88.82
2022-10-19T05:08:21.679Z,88.71
2022-10-19T05:09:21.670Z,88.51
2022-10-19T05:10:21.679Z,88.41
2022-10-19T05:11:21.647Z,88.26
2022-10-19T05:12:21.647Z,88.17
2022-10-19T05:13:21.633Z,87.85
2022-10-19T05:14:21.651Z,87.76
2022-10-19T05:15:21.639Z,87.65
2022-10-19T05:16:21.604Z,87.65
2022-10-19T05:17:21.592Z,87.55
2022-10-19T05:18:21.582Z,87.65
2022-10-19T05:19:21.562Z,87.85
2022-10-19T05:20:21.573Z,87.85
2022-10-19T05:21:21.554Z,87.76
2022-10-19T05:22:21.534Z,87.65
2022-10-19T05:23:21.566Z,87.55
2022-10-19T05:24:21.523Z,87.35
2022-10-19T05:25:21.515Z,87.04
2022-10-19T05:26:21.485Z,86.73
2022-10-19T05:27:21.484Z,86.63
2022-10-19T05:28:21.466Z,86.63
2022-10-19T05:29:21.416Z,86.73
2022-10-19T05:30:21.466Z,86.73
2022-10-19T05:31:21.441Z,86.73
2022-10-19T05:32:21.427Z,86.63
2022-10-19T05:33:21.376Z,86.53
2022-10-19T05:34:21.406Z,86.63
2022-10-19T05:35:22.513Z,86.63
2022-10-19T05:36:21.338Z,86.53
2022-10-19T05:37:21.328Z,86.53
2022-10-19T05:38:21.307Z,86.63
2022-10-19T05:39:21.298Z,86.73
2022-10-19T05:40:21.306Z,86.53
2022-10-19T05:41:21.280Z,86.53
2022-10-19T05:42:21.260Z,86.63
2022-10-19T05:43:21.263Z,86.73
2022-10-19T05:44:21.243Z,86.83
2022-10-19T05:45:21.254Z,86.83
2022-10-19T05:46:21.220Z,86.73
2022-10-19T05:47:21.220Z,86.73
2022-10-19T05:48:21.205Z,86.83
2022-10-19T05:49:21.194Z,86.94
2022-10-19T05:50:21.200Z,86.94
2022-10-19T05:51:21.181Z,86.83
2022-10-19T05:52:21.161Z,86.83
2022-10-19T05:53:21.154Z,86.83
2022-10-19T05:54:23.747Z,86.73
2022-10-19T05:55:22.154Z,86.63
2022-10-19T05:56:21.115Z,86.73
2022-10-19T05:57:21.105Z,86.73
2022-10-19T05:58:21.104Z,86.73
2022-10-19T05:59:21.095Z,86.43
2022-10-19T06:00:21.105Z,86.32
2022-10-19T06:01:21.078Z,86.32
2022-10-19T06:02:21.056Z,86.32
2022-10-19T06:03:21.047Z,86.02
2022-10-19T06:04:21.037Z,86.02
2022-10-19T06:05:21.047Z,85.81
2022-10-19T06:06:21.007Z,85.91
2022-10-19T06:07:21.007Z,85.91
2022-10-19T06:08:20.988Z,85.91
2022-10-19T06:09:20.985Z,86.02
2022-10-19T06:10:20.989Z,86.02
2022-10-19T06:11:20.959Z,86.22
2022-10-19T06:12:24.275Z,86.26
2022-10-19T06:13:20.943Z,86.36
2022-10-19T06:14:20.930Z,86.53
2022-10-19T06:15:20.937Z,86.63
2022-10-19T06:16:20.929Z,86.67
2022-10-19T06:17:20.900Z,86.73
2022-10-19T06:18:20.887Z,86.83
2022-10-19T06:19:20.881Z,86.77
2022-10-19T06:20:20.883Z,86.77
2022-10-19T06:21:20.861Z,86.63
2022-10-19T06:22:20.844Z,86.46
2022-10-19T06:23:20.847Z,86.36
2022-10-19T06:24:20.824Z,86.57
2022-10-19T06:25:20.834Z,86.77
2022-10-19T06:26:20.802Z,86.77
2022-10-19T06:27:20.839Z,86.88
2022-10-19T06:28:20.784Z,87.08
2022-10-19T06:29:20.777Z,87.08
2022-10-19T06:30:20.802Z,87.18
2022-10-19T06:31:20.753Z,87.38
2022-10-19T06:32:20.735Z,87.18
2022-10-19T06:33:20.733Z,87.18
2022-10-19T06:34:20.757Z,87.18
2022-10-19T06:35:20.726Z,87.18
2022-10-19T06:36:20.697Z,87.08
2022-10-19T06:37:20.688Z,87.38
2022-10-19T06:38:20.675Z,87.29
2022-10-19T06:39:20.667Z,87.29
2022-10-19T06:40:20.705Z,87.59
2022-10-19T06:41:20.655Z,87.90
2022-10-19T06:42:20.638Z,88.00
2022-10-19T06:43:20.627Z,87.79
2022-10-19T06:44:20.609Z,87.79
2022-10-19T06:45:20.620Z,87.96
2022-10-19T06:46:20.689Z,87.96
2022-10-19T06:47:20.587Z,87.96
2022-10-19T06:48:20.571Z,87.55
2022-10-19T06:49:20.560Z,87.35
2022-10-19T06:50:20.572Z,87.24
2022-10-19T06:51:20.541Z,87.14
2022-10-19T06:52:20.522Z,87.35
2022-10-19T06:53:20.530Z,87.24
2022-10-19T06:54:20.505Z,87.24
2022-10-19T06:55:20.513Z,87.24
2022-10-19T06:56:20.482Z,87.24
2022-10-19T06:57:20.481Z,87.45
2022-10-19T06:58:20.465Z,87.45
2022-10-19T06:59:20.461Z,87.35
2022-10-19T07:00:20.463Z,87.24
2022-10-19T07:01:20.511Z,87.35
2022-10-19T07:02:20.432Z,87.35
2022-10-19T07:03:20.414Z,87.24
2022-10-19T07:04:20.395Z,86.94
2022-10-19T07:05:20.413Z,86.94
2022-10-19T07:06:20.377Z,86.94
2022-10-19T07:07:20.375Z,87.14
2022-10-19T07:08:20.356Z,87.04
2022-10-19T07:09:20.348Z,87.04
2022-10-19T07:10:20.355Z,87.04
2022-10-19T07:11:20.349Z,87.35
2022-10-19T07:12:20.307Z,86.83
2022-10-19T07:13:20.315Z,86.94
2022-10-19T07:14:20.300Z,87.24
2022-10-19T07:15:20.316Z,87.24
2022-10-19T07:16:21.479Z,87.35
2022-10-19T07:17:20.269Z,87.45
2022-10-19T07:18:20.252Z,87.55
2022-10-19T07:19:20.247Z,87.55
2022-10-19T07:20:20.257Z,87.65
2022-10-19T07:21:20.220Z,87.65
2022-10-19T07:22:24.408Z,87.76
2022-10-19T07:23:21.201Z,87.96
2022-10-19T07:24:20.188Z,88.06
2022-10-19T07:25:20.199Z,87.85
2022-10-19T07:26:20.171Z,87.76
2022-10-19T07:27:20.164Z,87.65
2022-10-19T07:28:20.145Z,87.45
2022-10-19T07:29:20.141Z,87.55
2022-10-19T07:30:20.144Z,87.45
2022-10-19T07:31:20.122Z,87.30
2022-10-19T07:32:20.111Z,87.10
2022-10-19T07:33:20.100Z,87.00
2022-10-19T07:34:20.977Z,87.00
2022-10-19T07:35:20.095Z,87.20
2022-10-19T07:36:20.056Z,87.41
2022-10-19T07:37:20.053Z,87.20
2022-10-19T07:38:20.035Z,87.00
2022-10-19T07:39:20.025Z,87.00
2022-10-19T07:40:20.037Z,86.90
2022-10-19T07:41:20.032Z,86.69
2022-10-19T07:42:19.996Z,86.29
2022-10-19T07:43:19.995Z,86.14
2022-10-19T07:44:19.983Z,86.18
2022-10-19T07:45:19.987Z,85.94
2022-10-19T07:46:19.957Z,85.53
2022-10-19T07:47:19.949Z,85.63
2022-10-19T07:48:19.938Z,85.42
2022-10-19T07:49:19.928Z,85.02
2022-10-19T07:50:19.929Z,85.22
2022-10-19T07:51:19.963Z,85.67
2022-10-19T07:52:19.899Z,86.08
2022-10-19T07:53:19.892Z,86.38
2022-10-19T07:54:19.871Z,86.55
2022-10-19T07:55:19.889Z,86.76
2022-10-19T07:56:19.855Z,86.65
2022-10-19T07:57:19.853Z,86.65
2022-10-19T07:58:19.828Z,86.65
2022-10-19T07:59:19.823Z,86.24
2022-10-19T08:00:19.822Z,86.24
2022-10-19T08:01:19.803Z,86.76
2022-10-19T08:02:19.804Z,86.76
2022-10-19T08:04:13.771Z,86.65
2022-10-19T08:05:20.844Z,86.55
2022-10-19T08:06:19.744Z,86.65
2022-10-19T08:07:19.734Z,86.65
2022-10-19T08:08:19.729Z,86.55
2022-10-19T08:09:47.181Z,86.55
2022-10-19T08:10:20.718Z,86.24
2022-10-19T08:11:19.704Z,86.14
2022-10-19T08:12:19.682Z,86.35
2022-10-19T08:13:19.678Z,86.65
2022-10-19T08:14:19.657Z,86.85
2022-10-19T08:15:19.677Z,86.55
2022-10-19T08:16:19.637Z,86.35
2022-10-19T08:17:19.635Z,86.65
2022-10-19T08:18:19.670Z,86.65
2022-10-19T08:19:19.608Z,86.76
2022-10-19T08:20:19.618Z,86.55
2022-10-19T08:21:19.588Z,86.04
2022-10-19T08:22:19.587Z,86.14
2022-10-19T08:23:19.569Z,86.35
2022-10-19T08:24:19.573Z,86.65
2022-10-19T08:25:19.569Z,86.55
2022-10-19T08:26:19.537Z,86.24
2022-10-19T08:27:19.530Z,86.10
2022-10-19T08:28:19.521Z,86.00
2022-10-19T08:29:19.514Z,85.73
2022-10-19T08:30:19.509Z,85.73
2022-10-19T08:31:19.500Z,85.73
2022-10-19T08:32:19.471Z,85.94
2022-10-19T08:33:19.470Z,85.63
2022-10-19T08:34:19.453Z,85.42
2022-10-19T08:35:19.463Z,85.42
2022-10-19T08:36:19.432Z,85.53
2022-10-19T08:37:40.222Z,85.63
2022-10-19T08:38:20.412Z,85.83
2022-10-19T08:39:19.406Z,86.04
2022-10-19T08:40:19.415Z,86.04
2022-10-19T08:41:19.384Z,85.94
2022-10-19T08:42:19.365Z,86.04
2022-10-19T08:43:19.365Z,86.35
2022-10-19T08:44:19.356Z,86.44
2022-10-19T08:45:19.356Z,86.35
2022-10-19T08:46:19.335Z,85.32
2022-10-19T08:47:23.293Z,85.22
2022-10-19T08:48:19.348Z,85.02
2022-10-19T08:49:19.299Z,84.91
2022-10-19T08:50:19.305Z,85.22
2022-10-19T08:51:19.277Z,85.42
2022-10-19T08:52:19.277Z,85.53
2022-10-19T08:53:19.281Z,85.63
2022-10-19T08:54:19.238Z,85.83
2022-10-19T08:55:20.656Z,85.63
2022-10-19T08:56:38.979Z,85.53
2022-10-19T08:57:20.210Z,85.94
2022-10-19T08:58:19.199Z,86.00
2022-10-19T08:59:19.191Z,86.00
2022-10-19T09:00:19.212Z,86.00
2022-10-19T09:01:19.178Z,85.79
2022-10-19T09:02:19.160Z,85.69
2022-10-19T09:03:27.134Z,85.79
2022-10-19T09:04:20.144Z,86.00
2022-10-19T09:05:19.152Z,86.20
2022-10-19T09:06:19.112Z,86.41
2022-10-19T09:07:19.111Z,86.20
2022-10-19T09:08:19.095Z,86.10
2022-10-19T09:09:19.091Z,86.20
2022-10-19T09:10:19.207Z,86.16
2022-10-19T09:11:19.065Z,86.26
2022-10-19T09:12:19.053Z,86.16
2022-10-19T09:13:19.045Z,85.86
2022-10-19T09:14:19.049Z,85.24
2022-10-19T09:15:19.047Z,85.04
2022-10-19T09:16:19.017Z,84.80
2022-10-19T09:17:19.005Z,84.90
2022-10-19T09:18:18.986Z,84.69
2022-10-19T09:19:18.997Z,84.69
2022-10-19T09:20:19.056Z,83.98
2022-10-19T09:21:18.967Z,83.23
2022-10-19T09:22:18.951Z,82.92
2022-10-19T09:23:18.946Z,82.92
2022-10-19T09:24:18.928Z,82.92
2022-10-19T09:25:18.950Z,82.51
2022-10-19T09:26:18.907Z,82.51
2022-10-19T09:27:18.899Z,82.71
2022-10-19T09:28:18.891Z,83.33
2022-10-19T09:29:18.881Z,83.33
2022-10-19T09:30:18.924Z,83.02
2022-10-19T09:31:18.860Z,82.41
2022-10-19T09:32:18.841Z,82.68
2022-10-19T09:33:18.843Z,82.68
2022-10-19T09:34:18.822Z,82.78
2022-10-19T09:35:18.833Z,82.47
2022-10-19T09:36:27.506Z,82.57
2022-10-19T09:37:25.648Z,82.37
2022-10-19T09:38:19.782Z,82.27
2022-10-19T09:39:18.769Z,81.66
2022-10-19T09:40:18.856Z,81.31
2022-10-19T09:41:18.752Z,81.11
2022-10-19T09:42:18.819Z,80.80
2022-10-19T09:43:18.725Z,80.80
2022-10-19T09:44:18.722Z,80.91
2022-10-19T09:45:18.714Z,81.27
2022-10-19T09:46:20.361Z,80.56
2022-10-19T09:47:18.696Z,79.44
2022-10-19T09:48:18.676Z,79.44
2022-10-19T09:49:18.658Z,78.73
2022-10-19T09:50:18.686Z,77.57
2022-10-19T09:51:18.666Z,76.76
2022-10-19T09:52:18.634Z,77.17
2022-10-19T09:53:18.625Z,77.17
2022-10-19T09:54:18.620Z,77.33
2022-10-19T09:55:18.600Z,77.03
2022-10-19T09:56:18.617Z,76.82
2022-10-19T09:57:18.582Z,77.13
2022-10-19T09:58:18.581Z,77.60
2022-10-19T09:59:18.558Z,78.62
2022-10-19T10:00:18.553Z,76.99
2022-10-19T10:01:18.558Z,76.79
2022-10-19T10:02:18.531Z,76.99
2022-10-19T10:03:18.515Z,76.48
2022-10-19T10:04:18.512Z,76.86
2022-10-19T10:05:18.494Z,77.06
2022-10-19T10:06:18.503Z,76.45
2022-10-19T10:07:18.471Z,76.34
2022-10-19T10:08:18.464Z,76.25
2022-10-19T10:09:18.454Z,74.68
2022-10-19T10:10:18.454Z,74.88
2022-10-19T10:11:18.451Z,75.09
2022-10-19T10:12:18.423Z,74.79
2022-10-19T10:13:18.415Z,72.65
2022-10-19T10:14:18.416Z,71.94
2022-10-19T10:15:18.385Z,72.96
2022-10-19T10:16:18.400Z,73.53
2022-10-19T10:17:18.375Z,73.63
2022-10-19T10:18:18.358Z,73.53
2022-10-19T10:19:18.356Z,72.69
2022-10-19T10:20:18.372Z,71.47
2022-10-19T10:21:21.629Z,71.06
2022-10-19T10:22:19.316Z,70.86
2022-10-19T10:23:18.306Z,68.93
2022-10-19T10:24:18.298Z,68.52
2022-10-19T10:25:18.282Z,69.34
2022-10-19T10:26:18.292Z,69.43
2022-10-19T10:27:18.269Z,69.23
2022-10-19T10:28:18.279Z,69.30
2022-10-19T10:29:18.237Z,69.30
2022-10-19T10:30:18.230Z,68.02
2022-10-19T10:31:18.238Z,67.58
2022-10-19T10:32:18.219Z,66.61
2022-10-19T10:33:27.037Z,64.58
2022-10-19T10:34:23.221Z,64.18
2022-10-19T10:35:19.173Z,65.02
2022-10-19T10:36:18.185Z,66.13
2022-10-19T10:37:18.153Z,65.62
2022-10-19T10:38:18.145Z,64.48
2022-10-19T10:39:18.133Z,61.82
2022-10-19T10:40:21.295Z,62.63
2022-10-19T10:41:19.125Z,63.13
2022-10-19T10:42:18.105Z,62.81
2022-10-19T10:43:18.085Z,62.98
2022-10-19T10:44:18.083Z,63.48
2022-10-19T10:45:18.067Z,63.08
2022-10-19T10:46:18.079Z,63.61
2022-10-19T10:47:18.066Z,63.31
2022-10-19T10:48:18.046Z,62.53
2022-10-19T10:49:18.026Z,62.05
2022-10-19T10:50:18.029Z,62.38
2022-10-19T10:51:18.028Z,62.38
2022-10-19T10:52:17.998Z,63.43
2022-10-19T10:53:17.980Z,65.05
2022-10-19T10:54:17.979Z,65.39
2022-10-19T10:55:17.968Z,66.30
2022-10-19T10:56:17.980Z,65.99
2022-10-19T10:57:17.965Z,65.42
2022-10-19T10:58:17.940Z,65.92
2022-10-19T10:59:17.912Z,65.62
2022-10-19T11:00:17.921Z,64.30
2022-10-19T11:01:17.957Z,65.14
2022-10-19T11:02:17.935Z,66.66
2022-10-19T11:03:17.875Z,65.24
2022-10-19T11:04:17.874Z,64.94
2022-10-19T11:05:17.854Z,64.03
2022-10-19T11:06:17.906Z,65.75
2022-10-19T11:07:17.835Z,64.53
2022-10-19T11:08:17.827Z,66.46
2022-10-19T11:09:17.825Z,65.45
2022-10-19T11:10:17.806Z,64.97
2022-10-19T11:11:17.815Z,64.97
2022-10-19T11:12:17.788Z,66.49
2022-10-19T11:13:17.768Z,65.55
2022-10-19T11:14:17.771Z,67.88
2022-10-19T11:15:17.825Z,66.86
2022-10-19T11:16:17.762Z,68.59
2022-10-19T11:17:17.731Z,67.78
2022-10-19T11:18:17.720Z,66.97
2022-10-19T11:19:17.724Z,67.07
2022-10-19T11:20:17.701Z,67.47
2022-10-19T11:21:17.700Z,67.78
2022-10-19T11:22:17.681Z,66.16
2022-10-19T11:23:17.667Z,65.21
2022-10-19T11:24:17.706Z,64.40
2022-10-19T11:25:17.643Z,65.01
2022-10-19T11:26:17.658Z,65.34
2022-10-19T11:27:17.623Z,65.04
2022-10-19T11:28:17.613Z,64.33
2022-10-19T11:29:17.594Z,64.43
2022-10-19T11:30:17.617Z,66.05
2022-10-19T11:31:17.598Z,64.84
2022-10-19T11:32:17.574Z,65.04
2022-10-19T11:33:17.555Z,68.39
2022-10-19T11:34:18.594Z,66.16
2022-10-19T11:35:17.534Z,65.75
2022-10-19T11:36:17.546Z,65.34
2022-10-19T11:37:17.523Z,64.53
2022-10-19T11:38:21.148Z,63.82
2022-10-19T11:39:18.490Z,67.58
2022-10-19T11:40:21.850Z,66.86
2022-10-19T11:41:18.510Z,65.88
2022-10-19T11:42:17.469Z,68.12
2022-10-19T11:43:17.449Z,69.30
2022-10-19T11:44:17.455Z,67.58
2022-10-19T11:45:17.429Z,67.78
2022-10-19T11:46:17.459Z,66.23
2022-10-19T11:47:17.410Z,66.23
2022-10-19T11:48:17.459Z,65.72
2022-10-19T11:49:17.402Z,66.70
2022-10-19T11:50:17.400Z,65.99
2022-10-19T11:51:21.628Z,63.73
2022-10-19T11:52:17.362Z,64.04
2022-10-19T11:53:17.345Z,62.62
2022-10-19T11:54:17.341Z,60.46
2022-10-19T11:55:17.331Z,60.66
2022-10-19T11:56:17.360Z,60.57
2022-10-19T11:57:17.305Z,60.57
2022-10-19T11:58:17.303Z,60.66
2022-10-19T11:59:17.287Z,61.17
2022-10-19T12:00:37.752Z,60.13
2022-10-19T12:01:18.276Z,60.33
2022-10-19T12:02:17.290Z,61.44
2022-10-19T12:03:17.262Z,61.35
2022-10-19T12:04:17.236Z,60.61
2022-10-19T12:05:17.216Z,60.63
2022-10-19T12:06:17.239Z,60.53
2022-10-19T12:07:17.198Z,60.23
2022-10-19T12:08:17.195Z,60.66
2022-10-19T12:09:17.263Z,63.09
2022-10-19T12:10:17.189Z,62.05
2022-10-19T12:11:17.160Z,61.82
2022-10-19T12:12:17.149Z,61.01
2022-10-19T12:13:17.144Z,61.72
2022-10-19T12:14:17.130Z,61.72
2022-10-19T12:15:17.142Z,61.19
2022-10-19T12:16:17.104Z,61.90
2022-10-19T12:17:17.101Z,60.98
2022-10-19T12:18:17.096Z,58.96
2022-10-19T12:19:17.073Z,59.27
2022-10-19T12:20:19.712Z,60.88
2022-10-19T12:21:17.061Z,60.68
2022-10-19T12:22:17.048Z,60.27
2022-10-19T12:23:17.024Z,59.77
2022-10-19T12:24:17.029Z,59.06
2022-10-19T12:25:17.024Z,59.56
2022-10-19T12:27:16.988Z,60.50
2022-10-19T12:28:16.978Z,61.01
2022-10-19T12:29:16.957Z,60.30
2022-10-19T12:30:16.977Z,59.80
2022-10-19T12:31:16.936Z,60.10
2022-10-19T12:32:16.936Z,60.50
2022-10-19T12:33:16.918Z,59.90
2022-10-19T12:34:16.916Z,60.50
2022-10-19T12:35:16.953Z,60.10
2022-10-19T12:36:16.896Z,61.32
2022-10-19T12:37:16.869Z,59.70
2022-10-19T12:38:16.885Z,60.00
2022-10-19T12:39:16.850Z,60.30
2022-10-19T12:40:16.888Z,60.20
2022-10-19T12:41:16.841Z,60.00
2022-10-19T12:42:16.829Z,61.01
2022-10-19T12:43:16.811Z,61.35
2022-10-19T12:44:16.849Z,61.62
2022-10-19T12:45:16.818Z,60.20
2022-10-19T12:46:16.784Z,59.70
2022-10-19T12:47:16.775Z,60.10
2022-10-19T12:48:16.764Z,60.10
2022-10-19T12:49:16.755Z,60.71
2022-10-19T12:50:16.797Z,61.24
2022-10-19T12:51:16.726Z,62.76
2022-10-19T12:52:16.722Z,61.95
2022-10-19T12:53:16.773Z,62.56
2022-10-19T12:54:16.698Z,62.56
2022-10-19T12:55:16.695Z,61.95
2022-10-19T12:56:16.676Z,61.35